Time;durP1;ratioP1;P1;durP2;ratioP2;P2;SDS_P1;SDS_P2;PMS_P1;PMS_P2;Temp;Humidity;BMP_temperature;BMP_pressure;BME280_temperature;BME280_humidity;BME280_pressure;Samples;Min_cycle;Max_cycle;Signal;HPM_P1;HPM_P2
2023/09/22 00:01:02;;;;;;;11.23;10.07;;;;;;;12.57;100.00;99810.09;5042038;28;20452;-49
2023/09/22 00:43:48;;;;;;;11.85;8.30;;;;;;;12.00;100.00;99821.13;5040272;28;20067;-48
2023/09/22 00:46:13;;;;;;;10.88;8.68;;;;;;;11.96;100.00;99817.94;5047388;28;20052;-49
2023/09/22 00:48:40;;;;;;;12.45;9.32;;;;;;;11.92;100.00;99811.22;5051920;28;20029;-49
2023/09/22 00:51:06;;;;;;;13.90;9.38;;;;;;;11.94;100.00;99809.28;5045210;28;20125;-48
2023/09/22 00:53:34;;;;;;;11.73;9.07;;;;;;;11.90;100.00;99797.22;5045544;28;20267;-48
2023/09/22 00:56:00;;;;;;;13.63;8.77;;;;;;;11.93;100.00;99791.63;5046637;28;20113;-48
2023/09/22 00:58:26;;;;;;;12.60;9.82;;;;;;;11.87;100.00;99797.50;5043628;28;20036;-49
2023/09/22 01:00:52;;;;;;;13.80;9.65;;;;;;;11.86;100.00;99793.19;5044539;28;20033;-49
2023/09/22 01:03:18;;;;;;;15.25;10.05;;;;;;;11.82;100.00;99799.78;5036227;28;20479;-48
2023/09/22 01:05:45;;;;;;;16.90;10.38;;;;;;;11.80;100.00;99805.25;5036407;28;20071;-48
2023/09/22 01:08:11;;;;;;;16.98;10.13;;;;;;;11.80;100.00;99813.25;5040382;28;20026;-48
2023/09/22 01:10:40;;;;;;;15.65;9.70;;;;;;;11.80;100.00;99807.94;5040509;28;20033;-49
2023/09/22 01:13:06;;;;;;;17.45;10.55;;;;;;;11.82;100.00;99798.00;5039783;28;20403;-49
2023/09/22 01:15:37;;;;;;;13.30;9.43;;;;;;;11.76;100.00;99798.59;5045811;28;20028;-48
2023/09/22 01:18:05;;;;;;;15.05;9.50;;;;;;;11.76;100.00;99806.56;5039734;28;20037;-48
2023/09/22 01:20:32;;;;;;;14.18;10.25;;;;;;;11.78;100.00;99809.91;5047964;28;20538;-47
2023/09/22 01:22:58;;;;;;;14.95;10.07;;;;;;;11.77;100.00;99807.41;5036258;28;20503;-48
2023/09/22 01:25:23;;;;;;;14.35;10.35;;;;;;;11.74;100.00;99797.91;5043437;28;20178;-48
2023/09/22 01:27:49;;;;;;;16.42;10.60;;;;;;;11.73;100.00;99796.22;5044315;28;20095;-48
2023/09/22 01:30:15;;;;;;;15.88;10.73;;;;;;;11.71;100.00;99797.34;5048047;28;20028;-49
2023/09/22 01:32:41;;;;;;;15.50;10.13;;;;;;;11.72;100.00;99791.06;5042593;28;20454;-49
2023/09/22 01:35:07;;;;;;;14.65;10.65;;;;;;;11.68;100.00;99785.19;5048952;28;20123;-49
2023/09/22 01:37:36;;;;;;;14.05;10.05;;;;;;;11.67;100.00;99783.53;5051326;28;20036;-49
2023/09/22 01:40:02;;;;;;;16.40;10.43;;;;;;;11.68;100.00;99784.38;5042016;28;20108;-49
2023/09/22 01:42:27;;;;;;;16.85;10.68;;;;;;;11.64;100.00;99779.34;5042768;28;20127;-48
2023/09/22 01:44:52;;;;;;;16.05;10.40;;;;;;;11.65;100.00;99785.50;5043973;28;20056;-48
2023/09/22 01:47:18;;;;;;;17.65;10.48;;;;;;;11.64;100.00;99790.00;5046770;28;20037;-48
2023/09/22 01:49:43;;;;;;;14.40;10.80;;;;;;;11.62;100.00;99791.97;5049058;28;20028;-48
2023/09/22 01:52:09;;;;;;;17.10;11.38;;;;;;;11.60;100.00;99801.06;5052617;28;20356;-49
2023/09/22 01:54:35;;;;;;;16.85;10.75;;;;;;;11.59;100.00;99805.56;5051407;28;20106;-50
2023/09/22 01:57:00;;;;;;;16.33;10.68;;;;;;;11.60;100.00;99791.25;5054017;28;20025;-48
2023/09/22 01:59:25;;;;;;;18.85;11.45;;;;;;;11.60;100.00;99788.59;5051659;28;20051;-48
2023/09/22 02:01:50;;;;;;;17.20;10.73;;;;;;;11.60;100.00;99790.44;5050397;28;20502;-49
2023/09/22 02:04:16;;;;;;;18.77;11.52;;;;;;;11.59;100.00;99794.94;5050435;28;20082;-48
2023/09/22 02:06:41;;;;;;;17.27;11.10;;;;;;;11.56;100.00;99789.06;5047075;28;20116;-49
2023/09/22 02:09:07;;;;;;;19.58;11.77;;;;;;;11.55;100.00;99782.06;5056806;28;20033;-49
2023/09/22 02:11:32;;;;;;;15.90;11.48;;;;;;;11.53;100.00;99784.06;5047172;28;20105;-49
2023/09/22 02:13:57;;;;;;;17.75;11.77;;;;;;;11.52;100.00;99788.50;5044808;28;20471;-48
2023/09/22 02:16:22;;;;;;;17.00;10.63;;;;;;;11.54;100.00;99794.53;5052705;28;20040;-49
2023/09/22 02:18:48;;;;;;;24.10;12.35;;;;;;;11.55;100.00;99796.19;5048107;28;20020;-48
2023/09/22 02:21:14;;;;;;;16.13;11.65;;;;;;;11.52;100.00;99793.84;5049796;28;20052;-48
2023/09/22 02:23:39;;;;;;;19.85;11.25;;;;;;;11.54;100.00;99802.53;5049086;28;20113;-49
2023/09/22 02:26:07;;;;;;;19.50;12.13;;;;;;;11.57;100.00;99799.53;5041096;28;20493;-49
2023/09/22 02:28:33;;;;;;;18.40;11.93;;;;;;;11.55;100.00;99803.34;5047312;28;20064;-49
2023/09/22 02:30:59;;;;;;;18.80;11.98;;;;;;;11.55;100.00;99798.84;5048381;28;20056;-49
2023/09/22 02:33:25;;;;;;;18.52;11.05;;;;;;;11.56;100.00;99805.03;5049488;28;20481;-49
2023/09/22 02:35:50;;;;;;;16.95;11.40;;;;;;;11.53;100.00;99800.84;5047575;28;20032;-48
2023/09/22 02:38:16;;;;;;;17.42;11.70;;;;;;;11.54;100.00;99791.88;5049863;28;20033;-48
2023/09/22 02:40:44;;;;;;;17.85;11.73;;;;;;;11.53;100.00;99784.88;5047633;28;20032;-49
2023/09/22 02:43:09;;;;;;;17.88;11.65;;;;;;;11.51;100.00;99792.19;5048376;28;20112;-49
2023/09/22 02:45:38;;;;;;;20.13;11.88;;;;;;;11.52;100.00;99788.50;5045277;28;20059;-48
2023/09/22 02:48:04;;;;;;;19.98;11.57;;;;;;;11.55;100.00;99793.53;5044882;28;20446;-49
2023/09/22 02:50:29;;;;;;;16.95;10.88;;;;;;;11.52;100.00;99796.50;5048075;28;20032;-48
2023/09/22 02:52:54;;;;;;;17.13;10.77;;;;;;;11.55;100.00;99798.84;5051382;28;20107;-49
2023/09/22 02:55:20;;;;;;;18.33;11.35;;;;;;;11.55;100.00;99800.69;5044295;28;20479;-49
2023/09/22 02:57:49;;;;;;;16.08;11.50;;;;;;;11.57;100.00;99796.88;5047412;28;20029;-48
2023/09/22 03:00:20;;;;;;;15.32;10.85;;;;;;;11.57;100.00;99796.88;5045570;28;20503;-48
2023/09/22 03:02:49;;;;;;;18.20;11.65;;;;;;;11.56;100.00;99797.88;5046595;28;20107;-49
2023/09/22 03:05:16;;;;;;;15.52;11.13;;;;;;;11.59;100.00;99794.94;5038555;28;20056;-49
2023/09/22 03:07:41;;;;;;;14.63;10.93;;;;;;;11.59;100.00;99799.38;5046962;28;20648;-49
2023/09/22 03:10:10;;;;;;;15.10;10.90;;;;;;;11.59;100.00;99794.94;5045580;28;20063;-50
2023/09/22 03:12:35;;;;;;;16.83;10.70;;;;;;;11.57;100.00;99802.19;5039960;28;20486;-49
2023/09/22 03:15:00;;;;;;;17.80;10.30;;;;;;;11.58;100.00;99801.22;5041895;28;20020;-49
2023/09/22 03:17:26;;;;;;;15.32;10.23;;;;;;;11.58;100.00;99808.38;5044274;28;20025;-49
2023/09/22 03:19:51;;;;;;;16.85;10.48;;;;;;;11.57;100.00;99809.34;5048066;28;20194;-48
2023/09/22 03:22:17;;;;;;;15.05;10.18;;;;;;;11.57;100.00;99807.50;5049044;28;20025;-49
2023/09/22 03:24:42;;;;;;;15.55;10.13;;;;;;;11.56;100.00;99803.19;5044356;28;20218;-49
2023/09/22 03:27:07;;;;;;;16.67;9.75;;;;;;;11.52;100.00;99799.16;5049562;28;20088;-48
2023/09/22 03:29:33;;;;;;;16.25;10.13;;;;;;;11.53;100.00;99797.34;5049395;28;20048;-48
2023/09/22 03:31:58;;;;;;;13.60;9.52;;;;;;;11.54;100.00;99799.88;5041126;28;20029;-49
2023/09/22 03:34:23;;;;;;;15.27;9.32;;;;;;;11.56;100.00;99799.72;5047792;28;20088;-49
2023/09/22 03:36:49;;;;;;;16.52;9.65;;;;;;;11.58;100.00;99801.22;5044207;28;20025;-49
2023/09/22 03:39:15;;;;;;;14.55;8.65;;;;;;;11.59;100.00;99810.03;5047234;28;20029;-48
2023/09/22 03:41:42;;;;;;;17.23;9.20;;;;;;;11.59;100.00;99808.22;5044032;28;20503;-49
2023/09/22 03:44:08;;;;;;;13.40;8.00;;;;;;;11.60;100.00;99809.88;5047625;28;20407;-48
2023/09/22 03:46:33;;;;;;;12.07;7.75;;;;;;;11.60;100.00;99809.06;5044925;28;20029;-51
2023/09/22 03:48:59;;;;;;;13.77;8.60;;;;;;;11.59;100.00;99810.88;5046356;28;20116;-50
2023/09/22 03:51:24;;;;;;;12.07;8.10;;;;;;;11.60;100.00;99806.41;5042185;28;20083;-49
2023/09/22 03:53:49;;;;;;;12.85;7.60;;;;;;;11.59;100.00;99804.72;5041206;28;20083;-50
2023/09/22 03:56:14;;;;;;;11.07;7.22;;;;;;;11.62;100.00;99807.06;5041739;28;20022;-49
2023/09/22 03:58:40;;;;;;;12.18;7.40;;;;;;;11.60;100.00;99812.53;5049813;28;20053;-49
2023/09/22 04:01:07;;;;;;;13.00;6.80;;;;;;;11.62;100.00;99813.25;5045376;28;20147;-49
2023/09/22 04:03:32;;;;;;;10.40;6.57;;;;;;;11.62;100.00;99821.22;5046510;28;20067;-49
2023/09/22 04:05:58;;;;;;;11.57;6.55;;;;;;;11.63;100.00;99820.22;5055144;28;20511;-49
2023/09/22 04:08:24;;;;;;;11.07;6.93;;;;;;;11.63;100.00;99816.75;5049172;28;20029;-48
2023/09/22 04:10:50;;;;;;;8.23;5.93;;;;;;;11.65;100.00;99812.09;5044359;28;20070;-49
2023/09/22 04:13:15;;;;;;;6.32;5.50;;;;;;;11.67;100.00;99812.78;5038218;28;20032;-48
2023/09/22 04:15:40;;;;;;;6.65;5.53;;;;;;;11.68;100.00;99813.63;5047678;28;20032;-50
2023/09/22 04:18:06;;;;;;;8.90;5.60;;;;;;;11.69;100.00;99809.97;5044154;28;20037;-48
2023/09/22 04:20:37;;;;;;;8.80;5.15;;;;;;;11.71;100.00;99816.81;5056621;28;20140;-48
2023/09/22 04:23:04;;;;;;;12.38;5.65;;;;;;;11.69;100.00;99818.81;5041101;28;20158;-49
2023/09/22 04:25:31;;;;;;;7.25;5.03;;;;;;;11.70;100.00;99823.13;5047143;28;20029;-48
2023/09/22 04:28:07;;;;;;;10.23;5.15;;;;;;;11.70;100.00;99827.63;5045545;28;20048;-49
2023/09/22 04:30:33;;;;;;;10.32;4.93;;;;;;;11.68;100.00;99822.44;5047904;28;20021;-49
2023/09/22 04:32:58;;;;;;;14.45;5.03;;;;;;;11.70;100.00;99819.63;5052000;28;20036;-48
2023/09/22 04:35:24;;;;;;;6.47;4.25;;;;;;;11.66;100.00;99827.91;5046625;28;20112;-49
2023/09/22 04:37:50;;;;;;;6.32;4.32;;;;;;;11.64;100.00;99829.88;5050208;28;20399;-48
2023/09/22 04:40:24;;;;;;;8.98;4.47;;;;;;;11.63;100.00;99828.19;5047792;28;20189;-49
2023/09/22 04:42:50;;;;;;;8.10;4.47;;;;;;;11.62;100.00;99828.34;5048995;28;20116;-49
2023/09/22 04:45:18;;;;;;;7.97;3.92;;;;;;;11.59;100.00;99824.19;5047601;28;20070;-48
2023/09/22 04:47:46;;;;;;;8.30;4.43;;;;;;;11.58;100.00;99835.78;5047625;28;20483;-49
2023/09/22 04:50:15;;;;;;;11.15;5.25;;;;;;;11.55;100.00;99844.06;5047077;28;20151;-49
2023/09/22 04:52:40;;;;;;;11.13;4.40;;;;;;;11.55;100.00;99827.28;5047109;28;20375;-49
2023/09/22 04:55:06;;;;;;;7.38;4.00;;;;;;;11.51;100.00;99836.53;5043033;28;20026;-50
2023/09/22 04:57:32;;;;;;;9.45;4.30;;;;;;;11.52;100.00;99839.03;5048516;28;20029;-49
2023/09/22 04:59:57;;;;;;;7.47;4.30;;;;;;;11.51;100.00;99834.72;5044420;28;20036;-49
2023/09/22 05:02:22;;;;;;;6.22;4.05;;;;;;;11.50;100.00;99835.69;5048549;28;20733;-49
2023/09/22 05:04:48;;;;;;;7.22;4.15;;;;;;;11.48;100.00;99830.53;5044210;28;20033;-49
2023/09/22 05:07:13;;;;;;;6.20;4.40;;;;;;;11.47;100.00;99843.97;5047850;28;20029;-49
2023/09/22 05:09:39;;;;;;;7.15;4.20;;;;;;;11.48;100.00;99838.50;5045834;28;20108;-48
2023/09/22 05:12:05;;;;;;;8.07;4.30;;;;;;;11.43;100.00;99846.09;5051411;28;20408;-49
2023/09/22 05:14:30;;;;;;;9.65;4.00;;;;;;;11.45;100.00;99836.13;5041429;28;20450;-49
2023/09/22 05:16:55;;;;;;;5.90;4.07;;;;;;;11.42;100.00;99848.91;5048295;28;20538;-48
2023/09/22 05:19:21;;;;;;;8.38;3.67;;;;;;;11.43;100.00;99853.25;5042883;28;20033;-48
2023/09/22 05:21:46;;;;;;;10.15;4.13;;;;;;;11.39;100.00;99851.84;5049158;28;20043;-48
2023/09/22 05:24:12;;;;;;;7.25;4.05;;;;;;;11.40;100.00;99858.84;5046992;28;20117;-48
2023/09/22 05:26:37;;;;;;;7.88;3.70;;;;;;;11.38;100.00;99866.13;5044407;28;20025;-48
2023/09/22 05:29:03;;;;;;;6.22;3.80;;;;;;;11.37;100.00;99867.13;5048458;28;20108;-48
2023/09/22 05:31:28;;;;;;;7.22;4.03;;;;;;;11.37;100.00;99865.28;5052222;28;20475;-48
2023/09/22 05:33:55;;;;;;;7.05;4.05;;;;;;;11.37;100.00;99861.78;5047311;28;20031;-48
2023/09/22 05:36:20;;;;;;;7.80;4.38;;;;;;;11.33;100.00;99863.91;5057944;28;20038;-49
2023/09/22 05:38:45;;;;;;;4.68;4.00;;;;;;;11.34;100.00;99867.41;5041250;28;20112;-49
2023/09/22 05:41:11;;;;;;;9.65;4.13;;;;;;;11.35;100.00;99871.75;5052456;28;20390;-50
2023/09/22 05:43:36;;;;;;;9.10;4.57;;;;;;;11.34;100.00;99878.91;5046993;28;20032;-48
2023/09/22 05:46:01;;;;;;;6.13;4.32;;;;;;;11.32;100.00;99885.31;5048913;28;20320;-48
2023/09/22 05:48:27;;;;;;;5.97;4.43;;;;;;;11.31;100.00;99887.16;5044623;28;20380;-51
2023/09/22 05:50:59;;;;;;;9.38;4.50;;;;;;;11.30;100.00;99888.94;5046777;28;20083;-48
2023/09/22 05:53:26;;;;;;;7.75;4.72;;;;;;;11.30;100.00;99885.47;5045788;28;20059;-48
2023/09/22 05:56:06;;;;;;;8.23;4.40;;;;;;;11.32;100.00;99883.50;5050636;28;20379;-48
2023/09/22 05:58:31;;;;;;;12.75;4.53;;;;;;;11.31;100.00;99879.19;5051052;28;20039;-50
2023/09/22 06:00:57;;;;;;;8.98;4.20;;;;;;;11.32;100.00;99893.31;5037840;28;20475;-47
2023/09/22 06:03:22;;;;;;;10.45;4.43;;;;;;;11.30;100.00;99907.56;5051738;28;20086;-48
2023/09/22 06:05:49;;;;;;;10.05;4.25;;;;;;;11.32;100.00;99899.44;5049485;28;20025;-48
2023/09/22 06:08:15;;;;;;;9.15;4.38;;;;;;;11.34;100.00;99901.97;5054252;28;20112;-48
2023/09/22 06:10:40;;;;;;;9.95;4.88;;;;;;;11.35;100.00;99914.28;5043300;28;20421;-47
2023/09/22 06:13:06;;;;;;;7.50;4.50;;;;;;;11.34;100.00;99916.13;5049861;28;20024;-48
2023/09/22 06:15:33;;;;;;;9.85;4.78;;;;;;;11.35;100.00;99916.94;5044160;28;20072;-48
2023/09/22 06:17:58;;;;;;;6.05;4.65;;;;;;;11.37;100.00;99909.66;5042759;28;20567;-49
2023/09/22 06:20:23;;;;;;;8.02;3.75;;;;;;;11.39;100.00;99907.69;5043718;28;20116;-48
2023/09/22 06:22:52;;;;;;;8.32;4.45;;;;;;;11.41;100.00;99916.38;5043710;28;20048;-50
2023/09/22 06:25:18;;;;;;;7.35;3.95;;;;;;;11.42;100.00;99910.91;5044852;28;20028;-48
2023/09/22 06:27:44;;;;;;;8.15;4.88;;;;;;;11.43;100.00;99915.22;5044423;28;20039;-48
2023/09/22 06:30:12;;;;;;;9.50;4.70;;;;;;;11.48;100.00;99922.75;5044279;28;20495;-49
2023/09/22 06:32:45;;;;;;;10.98;4.80;;;;;;;11.51;100.00;99924.28;5041945;28;20425;-49
2023/09/22 06:35:12;;;;;;;6.28;4.00;;;;;;;11.55;100.00;99928.34;5043059;28;20017;-47
2023/09/22 06:37:38;;;;;;;6.35;3.90;;;;;;;11.56;100.00;99932.69;5038898;28;20013;-48
2023/09/22 06:40:06;;;;;;;8.07;4.03;;;;;;;11.59;100.00;99927.03;5042121;28;20427;-48
2023/09/22 06:42:31;;;;;;;6.45;4.00;;;;;;;11.62;100.00;99927.63;5047878;28;20117;-48
2023/09/22 06:44:57;;;;;;;9.32;4.50;;;;;;;11.65;100.00;99932.63;5040741;28;20477;-48
2023/09/22 06:47:23;;;;;;;7.18;4.15;;;;;;;11.70;100.00;99940.16;5041300;28;20166;-49
2023/09/22 06:49:49;;;;;;;8.90;3.90;;;;;;;11.73;100.00;99939.88;5042961;28;20426;-49
2023/09/22 06:52:14;;;;;;;9.52;3.88;;;;;;;11.72;100.00;99934.69;5045525;28;20037;-49
2023/09/22 06:54:40;;;;;;;11.90;3.63;;;;;;;11.78;100.00;99945.59;5042064;28;20028;-49
2023/09/22 06:57:05;;;;;;;8.45;3.88;;;;;;;11.84;100.00;99946.84;5046211;28;20026;-49
2023/09/22 06:59:31;;;;;;;6.00;3.10;;;;;;;11.84;100.00;99952.16;5040923;28;20057;-49
2023/09/22 07:01:57;;;;;;;6.32;3.42;;;;;;;11.90;100.00;99950.72;5042711;28;20029;-50
2023/09/22 07:04:22;;;;;;;10.60;3.17;;;;;;;11.92;100.00;99952.25;5042628;28;20424;-49
2023/09/22 07:06:48;;;;;;;6.78;3.33;;;;;;;11.97;100.00;99954.47;5037988;28;20022;-49
2023/09/22 07:09:13;;;;;;;5.72;2.83;;;;;;;12.01;100.00;99958.53;5046667;28;20127;-49
2023/09/22 07:11:40;;;;;;;5.47;2.90;;;;;;;12.06;100.00;99950.09;5044800;28;20487;-50
2023/09/22 07:14:09;;;;;;;6.60;2.90;;;;;;;12.14;100.00;99960.81;5040708;28;20479;-49
2023/09/22 07:16:35;;;;;;;8.00;3.20;;;;;;;12.19;100.00;99955.88;5044901;28;20115;-49
2023/09/22 07:19:00;;;;;;;5.38;2.63;;;;;;;12.26;100.00;99964.97;5050743;28;20108;-49
2023/09/22 07:21:26;;;;;;;3.58;2.13;;;;;;;12.35;100.00;99966.72;5043122;28;20037;-49
2023/09/22 07:23:51;;;;;;;7.18;2.70;;;;;;;12.45;100.00;99961.31;5035780;28;20040;-49
2023/09/22 07:26:17;;;;;;;9.25;2.72;;;;;;;12.56;100.00;99965.59;5044656;28;20081;-49
2023/09/22 07:28:42;;;;;;;3.78;2.55;;;;;;;12.64;100.00;99971.00;5044192;28;20021;-49
2023/09/22 07:31:11;;;;;;;4.00;1.95;;;;;;;12.81;100.00;99981.81;5031616;28;20028;-49
2023/09/22 07:33:36;;;;;;;;;;;;;;;12.88;100.00;99975.69;5051272;28;20035;-49
2023/09/22 07:36:02;;;;;;;5.88;2.53;;;;;;;12.99;100.00;99981.78;5049638;28;20408;-49
2023/09/22 07:38:29;;;;;;;6.03;2.58;;;;;;;13.16;100.00;99982.75;5054693;28;20032;-48
2023/09/22 07:40:54;;;;;;;4.63;2.65;;;;;;;13.34;100.00;99991.59;5047256;28;20056;-49
2023/09/22 07:43:20;;;;;;;4.32;2.40;;;;;;;13.51;100.00;99997.84;5047828;28;20072;-49
2023/09/22 07:45:45;;;;;;;4.10;1.98;;;;;;;13.68;100.00;99990.78;5045334;28;20045;-50
2023/09/22 07:48:11;;;;;;;5.00;1.98;;;;;;;13.87;100.00;99992.34;5042556;28;20036;-49
2023/09/22 07:50:39;;;;;;;2.45;1.50;;;;;;;13.96;100.00;99999.41;5034232;28;20025;-49
2023/09/22 07:53:04;;;;;;;3.00;1.50;;;;;;;14.09;100.00;99996.31;5044367;28;20023;-48
2023/09/22 07:55:30;;;;;;;3.33;1.60;;;;;;;14.22;100.00;100010.03;5044083;28;20455;-48
2023/09/22 07:57:56;;;;;;;2.40;1.42;;;;;;;14.34;100.00;100013.25;5039360;28;20092;-49
2023/09/22 08:00:22;;;;;;;4.18;1.50;;;;;;;14.50;100.00;100007.09;5037601;28;20036;-48
2023/09/22 08:02:47;;;;;;;5.35;1.60;;;;;;;14.58;100.00;100017.81;5041697;28;20026;-49
2023/09/22 08:05:15;;;;;;;3.10;1.23;;;;;;;14.66;100.00;100022.38;5045789;28;20352;-49
2023/09/22 08:07:42;;;;;;;2.78;1.05;;;;;;;14.60;100.00;100015.84;5039584;28;20045;-49
2023/09/22 08:10:10;;;;;;;4.80;1.80;;;;;;;14.67;100.00;100033.88;5040446;28;20021;-47
2023/09/22 08:12:37;;;;;;;3.42;1.40;;;;;;;14.70;100.00;100033.56;5040474;28;20033;-48
2023/09/22 08:15:03;;;;;;;2.03;1.00;;;;;;;14.69;99.88;100026.53;5034263;28;20033;-48
2023/09/22 08:17:28;;;;;;;4.07;1.50;;;;;;;14.69;98.95;100030.06;5043834;28;20025;-48
2023/09/22 08:19:54;;;;;;;1.83;0.95;;;;;;;14.82;100.00;100036.75;5046824;28;20029;-48
2023/09/22 08:22:19;;;;;;;4.25;1.10;;;;;;;14.93;100.00;100023.06;5040668;28;20026;-48
2023/09/22 08:24:45;;;;;;;2.40;1.02;;;;;;;15.01;100.00;100033.78;5042371;28;20037;-48
2023/09/22 08:27:10;;;;;;;4.07;1.08;;;;;;;15.04;98.00;100027.25;5042897;28;20017;-48
2023/09/22 08:29:35;;;;;;;2.83;1.20;;;;;;;15.05;96.48;100035.09;5034773;28;20120;-48
2023/09/22 08:32:01;;;;;;;3.83;1.00;;;;;;;15.06;93.62;100044.81;5045115;28;20463;-48
2023/09/22 08:34:26;;;;;;;4.30;0.90;;;;;;;15.08;94.89;100037.44;5040214;28;20071;-48
2023/09/22 08:36:52;;;;;;;1.40;0.82;;;;;;;15.07;95.07;100034.94;5047668;28;20033;-48
2023/09/22 08:39:17;;;;;;;2.05;0.80;;;;;;;15.09;96.38;100040.97;5045315;28;20049;-48
2023/09/22 08:41:44;;;;;;;1.45;1.00;;;;;;;15.08;95.57;100041.97;5045786;28;20681;-48
2023/09/22 08:44:10;;;;;;;2.80;1.10;;;;;;;15.17;97.95;100047.16;5043224;28;20041;-48
2023/09/22 08:46:35;;;;;;;1.90;1.15;;;;;;;15.31;96.39;100045.63;5036936;28;20025;-47
2023/09/22 08:49:00;;;;;;;4.00;1.10;;;;;;;15.32;96.78;100041.97;5033179;28;20033;-47
2023/09/22 08:51:26;;;;;;;1.33;1.15;;;;;;;15.31;93.83;100052.84;5042486;28;20414;-48
2023/09/22 08:53:53;;;;;;;2.90;1.30;;;;;;;15.30;92.88;100053.81;5039647;28;20183;-48
2023/09/22 08:56:21;;;;;;;3.10;1.25;;;;;;;15.28;92.88;100054.00;5042024;28;20522;-48
2023/09/22 08:58:46;;;;;;;2.55;1.02;;;;;;;15.26;93.17;100053.34;5036474;28;20133;-48
2023/09/22 09:01:12;;;;;;;1.20;0.85;;;;;;;15.25;92.56;100048.97;5053136;28;20123;-48
2023/09/22 09:03:38;;;;;;;2.80;0.98;;;;;;;15.31;92.84;100050.16;5047326;28;20030;-48
2023/09/22 09:06:06;;;;;;;4.07;1.10;;;;;;;15.54;91.55;100040.44;5048752;28;20039;-48
2023/09/22 09:08:34;;;;;;;2.17;0.87;;;;;;;15.70;90.89;100052.09;5051090;28;20669;-48
2023/09/22 09:11:05;;;;;;;2.95;1.10;;;;;;;15.77;88.66;100060.31;5044382;28;20025;-49
2023/09/22 09:13:31;;;;;;;1.80;0.98;;;;;;;15.99;90.51;100058.78;5044588;28;20111;-48
2023/09/22 09:16:00;;;;;;;4.13;1.20;;;;;;;16.17;89.31;100059.38;5053419;28;20017;-48
2023/09/22 09:18:25;;;;;;;1.77;0.90;;;;;;;16.45;89.44;100070.50;5054343;28;20490;-48
2023/09/22 09:21:10;;;;;;;1.35;0.70;;;;;;;16.68;89.83;100060.81;5047400;28;20091;-47
2023/09/22 09:23:37;;;;;;;2.15;1.10;;;;;;;17.00;84.39;100062.47;5050888;28;20016;-48
2023/09/22 09:26:02;;;;;;;2.70;0.85;;;;;;;17.29;84.82;100069.81;5047247;28;20027;-48
2023/09/22 09:28:28;;;;;;;2.22;1.20;;;;;;;17.44;80.44;100064.47;5046740;28;20025;-48
2023/09/22 09:30:59;;;;;;;1.65;1.08;;;;;;;17.71;81.36;100063.03;5051018;28;20036;-48
2023/09/22 09:33:30;;;;;;;2.22;0.80;;;;;;;17.89;79.01;100069.94;5048177;28;20418;-48
2023/09/22 09:35:56;;;;;;;1.75;1.17;;;;;;;18.04;78.34;100080.69;5047249;28;20048;-49
2023/09/22 09:38:29;;;;;;;3.75;1.30;;;;;;;18.21;77.99;100071.41;5043362;28;20480;-48
2023/09/22 09:40:56;;;;;;;1.60;0.93;;;;;;;18.47;78.49;100070.09;5025867;28;20491;-48
2023/09/22 09:43:22;;;;;;;1.52;0.90;;;;;;;18.58;74.72;100074.97;5039664;28;20029;-48
2023/09/22 09:45:49;;;;;;;1.15;0.93;;;;;;;18.62;72.07;100078.97;5044608;28;20117;-48
2023/09/22 09:48:17;;;;;;;2.17;0.90;;;;;;;18.81;73.54;100074.00;5050397;28;20100;-48
2023/09/22 09:51:04;;;;;;;1.13;0.63;;;;;;;19.06;72.18;100073.66;5048637;28;20024;-49
2023/09/22 09:53:46;;;;;;;1.58;0.90;;;;;;;19.27;73.73;100067.44;5045787;28;20430;-48
2023/09/22 09:56:13;;;;;;;1.30;0.77;;;;;;;19.47;72.06;100065.75;5040011;28;20033;-49
2023/09/22 09:58:39;;;;;;;3.08;0.93;;;;;;;19.54;66.92;100068.50;5046518;28;20501;-50
2023/09/22 10:01:05;;;;;;;1.25;0.60;;;;;;;19.65;69.49;100069.81;5057053;28;20037;-49
2023/09/22 10:03:32;;;;;;;1.38;0.85;;;;;;;19.87;67.03;100070.63;5049276;28;20032;-48
2023/09/22 10:05:58;;;;;;;2.80;0.80;;;;;;;19.88;65.42;100073.09;5048642;28;20128;-48
2023/09/22 10:08:26;;;;;;;3.50;0.88;;;;;;;19.99;65.40;100066.34;5052800;28;20451;-48
2023/09/22 10:10:59;;;;;;;2.42;0.88;;;;;;;20.23;65.87;100062.31;5048649;28;20094;-51
2023/09/22 10:13:24;;;;;;;0.80;0.77;;;;;;;20.40;63.75;100060.13;5041556;28;20104;-48
2023/09/22 10:16:01;;;;;;;1.58;0.80;;;;;;;20.53;66.33;100075.50;5041161;28;20493;-51
2023/09/22 10:18:46;;;;;;;2.25;0.80;;;;;;;20.72;68.11;100079.34;5043102;28;20035;-49
2023/09/22 10:21:30;;;;;;;4.68;1.00;;;;;;;20.82;66.80;100060.91;5046864;28;20101;-48
2023/09/22 10:24:25;;;;;;;3.80;0.98;;;;;;;20.96;65.00;100061.75;5044637;28;20017;-48
2023/09/22 10:26:53;;;;;;;1.63;0.80;;;;;;;21.14;61.59;100058.47;5045749;28;20116;-49
2023/09/22 10:29:36;;;;;;;2.15;0.90;;;;;;;21.43;64.42;100057.25;5045400;28;20449;-48
2023/09/22 10:32:17;;;;;;;2.03;0.80;;;;;;;21.46;61.66;100055.16;5052481;28;20461;-48
2023/09/22 10:34:56;;;;;;;2.42;0.90;;;;;;;21.53;60.80;100047.91;5048797;28;20103;-48
2023/09/22 10:37:23;;;;;;;2.83;1.17;;;;;;;21.58;57.99;100059.75;5044820;28;20136;-48
2023/09/22 10:40:08;;;;;;;1.95;0.88;;;;;;;21.71;59.01;100060.78;5045966;28;20036;-49
2023/09/22 10:42:49;;;;;;;2.63;1.10;;;;;;;21.79;57.45;100069.50;5042755;28;20056;-49
2023/09/22 10:45:17;;;;;;;2.20;0.88;;;;;;;21.64;58.93;100066.19;5044278;28;20040;-48
2023/09/22 10:47:47;;;;;;;1.77;1.42;;;;;;;21.82;58.80;100060.13;5044341;28;20028;-48
2023/09/22 10:50:21;;;;;;;3.10;0.93;;;;;;;21.64;56.97;100068.06;5050290;28;20096;-49
2023/09/22 10:53:07;;;;;;;1.30;0.90;;;;;;;21.52;61.96;100057.88;5054696;28;20430;-48
2023/09/22 10:55:42;;;;;;;3.88;1.33;;;;;;;21.25;58.35;100062.44;5051392;28;20028;-48
2023/09/22 10:58:18;;;;;;;2.20;1.13;;;;;;;20.97;57.73;100059.91;5043205;28;20033;-48
2023/09/22 11:00:58;;;;;;;2.47;0.80;;;;;;;20.90;59.77;100070.69;5049554;28;20107;-48
2023/09/22 11:03:24;;;;;;;1.02;0.70;;;;;;;20.59;59.93;100069.31;5047882;28;20027;-49
2023/09/22 11:06:15;;;;;;;2.47;0.90;;;;;;;20.74;61.73;100061.09;5046367;28;20032;-48
2023/09/22 11:08:52;;;;;;;2.85;1.05;;;;;;;20.66;60.63;100053.19;5043691;28;20037;-48
2023/09/22 11:11:18;;;;;;;3.92;1.17;;;;;;;20.43;59.37;100059.69;5046217;28;20025;-48
2023/09/22 11:14:10;;;;;;;3.58;1.27;;;;;;;20.59;61.80;100065.78;5042145;28;20017;-49
2023/09/22 11:16:35;;;;;;;6.68;1.45;;;;;;;20.35;59.01;100070.69;5040783;28;20116;-48
2023/09/22 11:19:10;;;;;;;2.27;0.87;;;;;;;20.51;60.68;100066.78;5042954;28;20155;-49
2023/09/22 11:21:40;;;;;;;1.50;0.80;;;;;;;20.57;60.61;100071.41;5047851;28;20319;-49
2023/09/22 11:24:07;;;;;;;3.25;1.02;;;;;;;20.75;59.54;100068.16;5037046;28;20146;-48
2023/09/22 11:26:42;;;;;;;3.92;1.02;;;;;;;20.84;60.33;100075.03;5050446;28;20063;-48
2023/09/22 11:29:08;;;;;;;1.95;0.80;;;;;;;21.10;62.07;100067.19;5042451;28;20369;-48
2023/09/22 11:31:33;;;;;;;3.13;0.90;;;;;;;21.15;59.54;100061.97;5045569;28;20135;-48
2023/09/22 11:34:02;;;;;;;2.40;1.10;;;;;;;21.20;57.93;100079.25;5040547;28;20094;-49
2023/09/22 11:36:27;;;;;;;2.38;1.00;;;;;;;21.20;56.27;100081.94;5041852;28;20069;-49
2023/09/22 11:38:56;;;;;;;2.45;1.00;;;;;;;21.13;56.41;100072.16;5037432;28;20064;-49
2023/09/22 11:41:23;;;;;;;2.00;0.90;;;;;;;20.97;55.70;100085.03;5045627;28;20029;-48
2023/09/22 11:43:55;;;;;;;1.65;1.08;;;;;;;21.13;55.71;100088.38;5077127;27;20824;-49
2023/09/22 11:46:25;;;;;;;1.67;0.90;;;;;;;21.13;55.36;100088.38;5065578;28;20033;-49
2023/09/22 11:49:04;;;;;;;3.35;1.20;;;;;;;21.22;56.89;100087.97;5065798;28;20123;-51
2023/09/22 11:51:51;;;;;;;1.63;1.20;;;;;;;21.26;57.66;100075.69;5064000;28;20025;-49
2023/09/22 11:54:21;;;;;;;0.77;0.60;;;;;;;21.24;56.34;100075.09;5064329;28;20124;-49
2023/09/22 11:56:48;;;;;;;1.30;0.73;;;;;;;21.27;53.75;100076.56;5066023;28;20029;-48
2023/09/22 11:59:17;;;;;;;1.92;0.77;;;;;;;21.16;54.56;100079.88;5059673;28;20549;-48
2023/09/22 12:01:43;;;;;;;1.80;1.05;;;;;;;21.03;52.79;100081.50;5061144;28;20021;-48
2023/09/22 12:04:09;;;;;;;1.77;1.05;;;;;;;20.92;52.68;100089.34;5059847;28;20036;-49